sensor_id;sensor_type;location;lat;lon;timestamp;P1;durP1;ratioP1;P2;durP2;ratioP2
72904;SDS011;61048;52.162;4.516;2023-04-06T00:00:00;8.27;;;2.80;;
72904;SDS011;61048;52.162;4.516;2023-04-06T00:02:28;7.40;;;3.20;;
72904;SDS011;61048;52.162;4.516;2023-04-06T00:04:55;6.95;;;2.92;;
72904;SDS011;61048;52.162;4.516;2023-04-06T00:07:22;6.30;;;3.05;;
72904;SDS011;61048;52.162;4.516;2023-04-06T00:09:49;8.60;;;3.05;;
72904;SDS011;61048;52.162;4.516;2023-04-06T00:12:17;9.38;;;3.20;;
72904;SDS011;61048;52.162;4.516;2023-04-06T00:14:44;5.47;;;2.50;;
72904;SDS011;61048;52.162;4.516;2023-04-06T00:17:11;7.88;;;2.63;;
72904;SDS011;61048;52.162;4.516;2023-04-06T00:19:37;9.82;;;3.33;;
72904;SDS011;61048;52.162;4.516;2023-04-06T00:22:04;7.15;;;2.60;;
72904;SDS011;61048;52.162;4.516;2023-04-06T00:24:31;5.68;;;2.80;;
72904;SDS011;61048;52.162;4.516;2023-04-06T00:26:58;6.85;;;2.42;;
72904;SDS011;61048;52.162;4.516;2023-04-06T00:29:26;6.30;;;2.42;;
72904;SDS011;61048;52.162;4.516;2023-04-06T00:31:53;13.05;;;3.25;;
72904;SDS011;61048;52.162;4.516;2023-04-06T00:34:20;5.38;;;2.50;;
72904;SDS011;61048;52.162;4.516;2023-04-06T00:36:46;6.38;;;2.88;;
72904;SDS011;61048;52.162;4.516;2023-04-06T00:39:13;9.95;;;2.90;;
72904;SDS011;61048;52.162;4.516;2023-04-06T00:41:41;5.07;;;2.55;;
72904;SDS011;61048;52.162;4.516;2023-04-06T00:44:12;5.32;;;2.17;;
72904;SDS011;61048;52.162;4.516;2023-04-06T00:46:40;4.25;;;2.38;;
72904;SDS011;61048;52.162;4.516;2023-04-06T00:49:07;8.02;;;2.42;;
72904;SDS011;61048;52.162;4.516;2023-04-06T00:51:34;7.03;;;2.65;;
72904;SDS011;61048;52.162;4.516;2023-04-06T00:54:01;5.40;;;2.33;;
72904;SDS011;61048;52.162;4.516;2023-04-06T00:56:28;5.90;;;2.40;;
72904;SDS011;61048;52.162;4.516;2023-04-06T00:58:55;5.88;;;2.60;;
72904;SDS011;61048;52.162;4.516;2023-04-06T01:01:22;5.10;;;1.92;;
72904;SDS011;61048;52.162;4.516;2023-04-06T01:03:51;4.80;;;1.83;;
72904;SDS011;61048;52.162;4.516;2023-04-06T01:06:19;5.50;;;2.03;;
72904;SDS011;61048;52.162;4.516;2023-04-06T01:08:46;4.30;;;2.00;;
72904;SDS011;61048;52.162;4.516;2023-04-06T01:11:13;4.63;;;2.17;;
72904;SDS011;61048;52.162;4.516;2023-04-06T01:13:40;5.30;;;1.85;;
72904;SDS011;61048;52.162;4.516;2023-04-06T01:16:07;5.30;;;2.40;;
72904;SDS011;61048;52.162;4.516;2023-04-06T01:18:34;7.18;;;2.05;;
72904;SDS011;61048;52.162;4.516;2023-04-06T01:21:03;5.57;;;2.20;;
72904;SDS011;61048;52.162;4.516;2023-04-06T01:23:32;5.20;;;2.03;;
72904;SDS011;61048;52.162;4.516;2023-04-06T01:25:59;4.15;;;1.98;;
72904;SDS011;61048;52.162;4.516;2023-04-06T01:28:25;5.13;;;2.38;;
72904;SDS011;61048;52.162;4.516;2023-04-06T01:30:52;4.00;;;1.73;;
72904;SDS011;61048;52.162;4.516;2023-04-06T01:33:19;4.32;;;1.75;;
72904;SDS011;61048;52.162;4.516;2023-04-06T01:35:46;4.13;;;1.60;;
72904;SDS011;61048;52.162;4.516;2023-04-06T01:38:13;4.75;;;1.67;;
72904;SDS011;61048;52.162;4.516;2023-04-06T01:40:41;9.00;;;1.95;;
72904;SDS011;61048;52.162;4.516;2023-04-06T01:43:08;3.58;;;2.05;;
72904;SDS011;61048;52.162;4.516;2023-04-06T01:45:35;4.78;;;1.70;;
72904;SDS011;61048;52.162;4.516;2023-04-06T01:48:02;3.38;;;1.48;;
72904;SDS011;61048;52.162;4.516;2023-04-06T01:50:29;3.78;;;1.45;;
72904;SDS011;61048;52.162;4.516;2023-04-06T01:52:56;4.18;;;1.70;;
72904;SDS011;61048;52.162;4.516;2023-04-06T01:55:23;4.88;;;2.10;;
72904;SDS011;61048;52.162;4.516;2023-04-06T01:57:51;4.93;;;1.58;;
72904;SDS011;61048;52.162;4.516;2023-04-06T02:00:18;4.18;;;1.70;;
72904;SDS011;61048;52.162;4.516;2023-04-06T02:02:45;3.72;;;1.52;;
72904;SDS011;61048;52.162;4.516;2023-04-06T02:05:12;4.47;;;1.77;;
72904;SDS011;61048;52.162;4.516;2023-04-06T02:07:39;4.72;;;1.80;;
72904;SDS011;61048;52.162;4.516;2023-04-06T02:10:11;3.60;;;1.85;;
72904;SDS011;61048;52.162;4.516;2023-04-06T02:12:38;3.15;;;1.60;;
72904;SDS011;61048;52.162;4.516;2023-04-06T02:15:07;4.85;;;1.70;;
72904;SDS011;61048;52.162;4.516;2023-04-06T02:17:35;3.78;;;1.60;;
72904;SDS011;61048;52.162;4.516;2023-04-06T02:20:01;3.35;;;1.63;;
72904;SDS011;61048;52.162;4.516;2023-04-06T02:22:28;4.00;;;1.60;;
72904;SDS011;61048;52.162;4.516;2023-04-06T02:24:55;4.93;;;1.70;;
72904;SDS011;61048;52.162;4.516;2023-04-06T02:27:22;4.72;;;1.70;;
72904;SDS011;61048;52.162;4.516;2023-04-06T02:29:49;4.90;;;1.73;;
72904;SDS011;61048;52.162;4.516;2023-04-06T02:32:17;2.90;;;1.60;;
72904;SDS011;61048;52.162;4.516;2023-04-06T02:34:44;3.70;;;1.63;;
72904;SDS011;61048;52.162;4.516;2023-04-06T02:37:11;3.20;;;1.65;;
72904;SDS011;61048;52.162;4.516;2023-04-06T02:39:37;3.35;;;1.38;;
72904;SDS011;61048;52.162;4.516;2023-04-06T02:42:04;4.43;;;1.88;;
72904;SDS011;61048;52.162;4.516;2023-04-06T02:44:31;3.70;;;1.45;;
72904;SDS011;61048;52.162;4.516;2023-04-06T02:46:58;3.85;;;1.80;;
72904;SDS011;61048;52.162;4.516;2023-04-06T02:49:26;4.53;;;1.90;;
72904;SDS011;61048;52.162;4.516;2023-04-06T02:51:53;3.58;;;1.77;;
72904;SDS011;61048;52.162;4.516;2023-04-06T02:54:20;3.50;;;1.80;;
72904;SDS011;61048;52.162;4.516;2023-04-06T02:56:47;2.60;;;1.42;;
72904;SDS011;61048;52.162;4.516;2023-04-06T02:59:14;3.05;;;1.70;;
72904;SDS011;61048;52.162;4.516;2023-04-06T03:01:40;2.97;;;1.83;;
72904;SDS011;61048;52.162;4.516;2023-04-06T03:04:07;2.65;;;1.50;;
72904;SDS011;61048;52.162;4.516;2023-04-06T03:06:36;3.72;;;1.50;;
72904;SDS011;61048;52.162;4.516;2023-04-06T03:09:03;3.95;;;1.80;;
72904;SDS011;61048;52.162;4.516;2023-04-06T03:11:31;2.58;;;1.52;;
72904;SDS011;61048;52.162;4.516;2023-04-06T03:13:58;3.28;;;1.90;;
72904;SDS011;61048;52.162;4.516;2023-04-06T03:16:25;3.75;;;1.70;;
72904;SDS011;61048;52.162;4.516;2023-04-06T03:18:52;4.18;;;2.05;;
72904;SDS011;61048;52.162;4.516;2023-04-06T03:21:18;3.47;;;1.50;;
72904;SDS011;61048;52.162;4.516;2023-04-06T03:23:47;4.13;;;2.47;;
72904;SDS011;61048;52.162;4.516;2023-04-06T03:26:15;3.33;;;1.63;;
72904;SDS011;61048;52.162;4.516;2023-04-06T03:28:42;2.65;;;1.40;;
72904;SDS011;61048;52.162;4.516;2023-04-06T03:31:09;2.90;;;1.42;;
72904;SDS011;61048;52.162;4.516;2023-04-06T03:33:36;3.40;;;1.42;;
72904;SDS011;61048;52.162;4.516;2023-04-06T03:36:03;2.45;;;1.45;;
72904;SDS011;61048;52.162;4.516;2023-04-06T03:38:31;3.55;;;1.70;;
72904;SDS011;61048;52.162;4.516;2023-04-06T03:40:59;3.00;;;1.40;;
72904;SDS011;61048;52.162;4.516;2023-04-06T03:43:26;3.15;;;1.50;;
72904;SDS011;61048;52.162;4.516;2023-04-06T03:45:53;3.45;;;1.75;;
72904;SDS011;61048;52.162;4.516;2023-04-06T03:48:20;2.80;;;1.38;;
72904;SDS011;61048;52.162;4.516;2023-04-06T03:50:46;4.40;;;1.55;;
72904;SDS011;61048;52.162;4.516;2023-04-06T03:53:13;3.28;;;2.00;;
72904;SDS011;61048;52.162;4.516;2023-04-06T03:55:40;2.92;;;1.42;;
72904;SDS011;61048;52.162;4.516;2023-04-06T03:58:08;3.33;;;1.50;;
72904;SDS011;61048;52.162;4.516;2023-04-06T04:00:35;4.35;;;1.30;;
72904;SDS011;61048;52.162;4.516;2023-04-06T04:03:02;3.45;;;1.77;;
72904;SDS011;61048;52.162;4.516;2023-04-06T04:05:29;3.40;;;1.33;;
72904;SDS011;61048;52.162;4.516;2023-04-06T04:07:56;4.57;;;1.33;;
72904;SDS011;61048;52.162;4.516;2023-04-06T04:10:23;3.45;;;1.65;;
72904;SDS011;61048;52.162;4.516;2023-04-06T04:12:50;3.28;;;1.63;;
72904;SDS011;61048;52.162;4.516;2023-04-06T04:15:18;3.53;;;1.60;;
72904;SDS011;61048;52.162;4.516;2023-04-06T04:17:45;3.53;;;1.50;;
72904;SDS011;61048;52.162;4.516;2023-04-06T04:20:14;2.65;;;1.40;;
72904;SDS011;61048;52.162;4.516;2023-04-06T04:22:41;3.38;;;1.50;;
72904;SDS011;61048;52.162;4.516;2023-04-06T04:25:08;4.55;;;2.10;;
72904;SDS011;61048;52.162;4.516;2023-04-06T04:27:35;3.83;;;1.38;;
72904;SDS011;61048;52.162;4.516;2023-04-06T04:30:02;2.83;;;1.45;;
72904;SDS011;61048;52.162;4.516;2023-04-06T04:32:31;4.13;;;1.35;;
72904;SDS011;61048;52.162;4.516;2023-04-06T04:34:58;2.88;;;1.13;;
72904;SDS011;61048;52.162;4.516;2023-04-06T04:37:25;3.65;;;1.40;;
72904;SDS011;61048;52.162;4.516;2023-04-06T04:39:52;4.47;;;1.30;;
72904;SDS011;61048;52.162;4.516;2023-04-06T04:42:18;3.53;;;1.38;;
72904;SDS011;61048;52.162;4.516;2023-04-06T04:44:45;3.40;;;1.30;;
72904;SDS011;61048;52.162;4.516;2023-04-06T04:47:12;2.65;;;1.25;;
72904;SDS011;61048;52.162;4.516;2023-04-06T04:49:40;3.00;;;1.05;;
72904;SDS011;61048;52.162;4.516;2023-04-06T04:52:07;2.33;;;1.30;;
72904;SDS011;61048;52.162;4.516;2023-04-06T04:54:34;3.83;;;1.25;;
72904;SDS011;61048;52.162;4.516;2023-04-06T04:57:01;3.67;;;1.70;;
72904;SDS011;61048;52.162;4.516;2023-04-06T04:59:28;3.88;;;1.30;;
72904;SDS011;61048;52.162;4.516;2023-04-06T05:01:55;2.58;;;1.05;;
72904;SDS011;61048;52.162;4.516;2023-04-06T05:04:22;2.40;;;1.25;;
72904;SDS011;61048;52.162;4.516;2023-04-06T05:06:50;2.92;;;1.20;;
72904;SDS011;61048;52.162;4.516;2023-04-06T05:09:29;3.40;;;1.60;;
72904;SDS011;61048;52.162;4.516;2023-04-06T05:11:56;3.25;;;1.30;;
72904;SDS011;61048;52.162;4.516;2023-04-06T05:14:23;3.17;;;1.30;;
72904;SDS011;61048;52.162;4.516;2023-04-06T05:16:50;4.03;;;1.63;;
72904;SDS011;61048;52.162;4.516;2023-04-06T05:19:17;2.92;;;1.35;;
72904;SDS011;61048;52.162;4.516;2023-04-06T05:21:44;2.85;;;1.33;;
72904;SDS011;61048;52.162;4.516;2023-04-06T05:24:12;3.40;;;1.17;;
72904;SDS011;61048;52.162;4.516;2023-04-06T05:26:39;2.83;;;1.30;;
72904;SDS011;61048;52.162;4.516;2023-04-06T05:29:05;2.97;;;1.35;;
72904;SDS011;61048;52.162;4.516;2023-04-06T05:31:32;3.20;;;1.42;;
72904;SDS011;61048;52.162;4.516;2023-04-06T05:33:59;3.25;;;1.48;;
72904;SDS011;61048;52.162;4.516;2023-04-06T05:36:26;3.03;;;1.73;;
72904;SDS011;61048;52.162;4.516;2023-04-06T05:38:53;4.43;;;1.77;;
72904;SDS011;61048;52.162;4.516;2023-04-06T05:41:22;4.40;;;2.20;;
72904;SDS011;61048;52.162;4.516;2023-04-06T05:43:49;3.60;;;2.17;;
72904;SDS011;61048;52.162;4.516;2023-04-06T05:46:16;4.03;;;2.22;;
72904;SDS011;61048;52.162;4.516;2023-04-06T05:48:44;10.50;;;2.80;;
72904;SDS011;61048;52.162;4.516;2023-04-06T05:51:11;8.25;;;2.47;;
72904;SDS011;61048;52.162;4.516;2023-04-06T05:53:40;6.90;;;2.28;;
72904;SDS011;61048;52.162;4.516;2023-04-06T05:56:07;8.65;;;2.78;;
72904;SDS011;61048;52.162;4.516;2023-04-06T05:58:35;10.02;;;2.63;;
72904;SDS011;61048;52.162;4.516;2023-04-06T06:01:02;6.45;;;2.40;;
72904;SDS011;61048;52.162;4.516;2023-04-06T06:03:30;11.02;;;2.17;;
72904;SDS011;61048;52.162;4.516;2023-04-06T06:06:00;12.05;;;2.28;;
72904;SDS011;61048;52.162;4.516;2023-04-06T06:08:27;7.30;;;2.65;;
72904;SDS011;61048;52.162;4.516;2023-04-06T06:10:54;6.35;;;2.40;;
72904;SDS011;61048;52.162;4.516;2023-04-06T06:13:21;11.57;;;2.28;;
72904;SDS011;61048;52.162;4.516;2023-04-06T06:15:50;5.72;;;2.70;;
72904;SDS011;61048;52.162;4.516;2023-04-06T06:18:16;6.18;;;2.13;;
72904;SDS011;61048;52.162;4.516;2023-04-06T06:20:43;5.90;;;1.95;;
72904;SDS011;61048;52.162;4.516;2023-04-06T06:23:10;9.25;;;2.25;;
72904;SDS011;61048;52.162;4.516;2023-04-06T06:25:37;8.00;;;2.13;;
72904;SDS011;61048;52.162;4.516;2023-04-06T06:28:05;11.40;;;3.35;;
72904;SDS011;61048;52.162;4.516;2023-04-06T06:30:31;4.80;;;1.92;;
72904;SDS011;61048;52.162;4.516;2023-04-06T06:33:00;8.05;;;2.13;;
72904;SDS011;61048;52.162;4.516;2023-04-06T06:35:26;5.82;;;2.47;;
72904;SDS011;61048;52.162;4.516;2023-04-06T06:37:53;7.05;;;2.10;;
72904;SDS011;61048;52.162;4.516;2023-04-06T06:40:20;8.43;;;2.28;;
72904;SDS011;61048;52.162;4.516;2023-04-06T06:42:48;6.60;;;2.22;;
72904;SDS011;61048;52.162;4.516;2023-04-06T06:45:16;7.53;;;1.90;;
72904;SDS011;61048;52.162;4.516;2023-04-06T06:47:43;5.20;;;2.15;;
72904;SDS011;61048;52.162;4.516;2023-04-06T06:50:11;11.45;;;2.75;;
72904;SDS011;61048;52.162;4.516;2023-04-06T06:52:39;5.38;;;2.08;;
72904;SDS011;61048;52.162;4.516;2023-04-06T06:55:06;7.28;;;2.53;;
72904;SDS011;61048;52.162;4.516;2023-04-06T06:57:34;7.63;;;3.08;;
72904;SDS011;61048;52.162;4.516;2023-04-06T07:00:01;13.20;;;3.58;;
72904;SDS011;61048;52.162;4.516;2023-04-06T07:02:29;10.52;;;4.03;;
72904;SDS011;61048;52.162;4.516;2023-04-06T07:04:56;31.77;;;8.60;;
72904;SDS011;61048;52.162;4.516;2023-04-06T07:07:24;39.38;;;11.38;;
72904;SDS011;61048;52.162;4.516;2023-04-06T07:09:51;30.77;;;8.70;;
72904;SDS011;61048;52.162;4.516;2023-04-06T07:12:18;24.05;;;6.85;;
72904;SDS011;61048;52.162;4.516;2023-04-06T07:14:45;32.22;;;8.00;;
72904;SDS011;61048;52.162;4.516;2023-04-06T07:17:12;27.35;;;6.40;;
72904;SDS011;61048;52.162;4.516;2023-04-06T07:19:39;26.55;;;6.88;;
72904;SDS011;61048;52.162;4.516;2023-04-06T07:22:05;27.38;;;6.35;;
72904;SDS011;61048;52.162;4.516;2023-04-06T07:24:34;19.30;;;6.15;;
72904;SDS011;61048;52.162;4.516;2023-04-06T07:27:01;21.15;;;7.05;;
72904;SDS011;61048;52.162;4.516;2023-04-06T07:29:28;21.63;;;5.95;;
72904;SDS011;61048;52.162;4.516;2023-04-06T07:31:55;17.92;;;5.63;;
72904;SDS011;61048;52.162;4.516;2023-04-06T07:34:22;17.38;;;4.40;;
72904;SDS011;61048;52.162;4.516;2023-04-06T07:36:48;16.10;;;4.88;;
72904;SDS011;61048;52.162;4.516;2023-04-06T07:39:17;15.02;;;4.70;;
72904;SDS011;61048;52.162;4.516;2023-04-06T07:41:46;18.15;;;5.15;;
72904;SDS011;61048;52.162;4.516;2023-04-06T07:44:13;18.77;;;4.35;;
72904;SDS011;61048;52.162;4.516;2023-04-06T07:46:40;15.40;;;4.20;;
72904;SDS011;61048;52.162;4.516;2023-04-06T07:49:06;13.60;;;4.18;;
72904;SDS011;61048;52.162;4.516;2023-04-06T07:51:35;16.63;;;4.13;;
72904;SDS011;61048;52.162;4.516;2023-04-06T07:54:02;10.85;;;4.03;;
72904;SDS011;61048;52.162;4.516;2023-04-06T07:56:29;12.73;;;4.18;;
72904;SDS011;61048;52.162;4.516;2023-04-06T07:58:58;12.15;;;4.00;;
72904;SDS011;61048;52.162;4.516;2023-04-06T08:01:24;11.02;;;3.88;;
72904;SDS011;61048;52.162;4.516;2023-04-06T08:03:52;11.70;;;4.13;;
72904;SDS011;61048;52.162;4.516;2023-04-06T08:06:20;12.50;;;4.10;;
72904;SDS011;61048;52.162;4.516;2023-04-06T08:08:47;10.32;;;3.80;;
72904;SDS011;61048;52.162;4.516;2023-04-06T08:11:14;9.30;;;4.20;;
72904;SDS011;61048;52.162;4.516;2023-04-06T08:13:41;10.23;;;3.47;;
72904;SDS011;61048;52.162;4.516;2023-04-06T08:16:09;11.38;;;3.47;;
72904;SDS011;61048;52.162;4.516;2023-04-06T08:18:36;10.80;;;3.70;;
72904;SDS011;61048;52.162;4.516;2023-04-06T08:21:02;10.73;;;3.30;;
72904;SDS011;61048;52.162;4.516;2023-04-06T08:23:29;12.02;;;3.83;;
72904;SDS011;61048;52.162;4.516;2023-04-06T08:25:56;11.20;;;3.67;;
72904;SDS011;61048;52.162;4.516;2023-04-06T08:28:23;8.20;;;3.22;;
72904;SDS011;61048;52.162;4.516;2023-04-06T08:30:50;8.65;;;3.50;;
72904;SDS011;61048;52.162;4.516;2023-04-06T08:33:18;11.98;;;3.75;;
72904;SDS011;61048;52.162;4.516;2023-04-06T08:35:45;8.32;;;3.55;;
72904;SDS011;61048;52.162;4.516;2023-04-06T08:38:12;8.18;;;3.10;;
72904;SDS011;61048;52.162;4.516;2023-04-06T08:40:39;7.85;;;3.00;;
72904;SDS011;61048;52.162;4.516;2023-04-06T08:43:09;8.55;;;2.88;;
72904;SDS011;61048;52.162;4.516;2023-04-06T08:45:39;8.55;;;3.50;;
72904;SDS011;61048;52.162;4.516;2023-04-06T08:48:07;7.20;;;2.92;;
72904;SDS011;61048;52.162;4.516;2023-04-06T08:50:37;10.20;;;2.95;;
72904;SDS011;61048;52.162;4.516;2023-04-06T08:53:05;6.40;;;3.13;;
72904;SDS011;61048;52.162;4.516;2023-04-06T08:55:33;6.35;;;2.63;;
72904;SDS011;61048;52.162;4.516;2023-04-06T08:58:02;8.13;;;2.72;;
72904;SDS011;61048;52.162;4.516;2023-04-06T09:00:30;9.02;;;3.30;;
72904;SDS011;61048;52.162;4.516;2023-04-06T09:02:57;5.95;;;3.03;;
72904;SDS011;61048;52.162;4.516;2023-04-06T09:05:25;12.20;;;3.55;;
72904;SDS011;61048;52.162;4.516;2023-04-06T09:07:54;10.32;;;3.03;;
72904;SDS011;61048;52.162;4.516;2023-04-06T09:10:21;8.73;;;3.05;;
72904;SDS011;61048;52.162;4.516;2023-04-06T09:12:50;9.23;;;3.67;;
72904;SDS011;61048;52.162;4.516;2023-04-06T09:15:18;7.63;;;3.10;;
72904;SDS011;61048;52.162;4.516;2023-04-06T09:17:46;6.70;;;3.10;;
72904;SDS011;61048;52.162;4.516;2023-04-06T09:20:13;9.60;;;3.08;;
72904;SDS011;61048;52.162;4.516;2023-04-06T09:22:39;8.98;;;3.17;;
72904;SDS011;61048;52.162;4.516;2023-04-06T09:25:09;7.20;;;2.78;;
72904;SDS011;61048;52.162;4.516;2023-04-06T09:27:44;9.63;;;3.13;;
72904;SDS011;61048;52.162;4.516;2023-04-06T09:30:12;12.85;;;3.00;;
72904;SDS011;61048;52.162;4.516;2023-04-06T09:32:44;11.70;;;2.30;;
72904;SDS011;61048;52.162;4.516;2023-04-06T09:35:12;8.18;;;3.22;;
72904;SDS011;61048;52.162;4.516;2023-04-06T09:37:39;9.90;;;2.65;;
72904;SDS011;61048;52.162;4.516;2023-04-06T09:40:07;11.80;;;3.03;;
72904;SDS011;61048;52.162;4.516;2023-04-06T09:42:36;10.63;;;3.10;;
72904;SDS011;61048;52.162;4.516;2023-04-06T09:45:03;7.32;;;2.75;;
72904;SDS011;61048;52.162;4.516;2023-04-06T09:47:30;14.82;;;3.30;;
72904;SDS011;61048;52.162;4.516;2023-04-06T09:49:58;9.57;;;3.25;;
72904;SDS011;61048;52.162;4.516;2023-04-06T09:52:26;9.55;;;2.67;;
72904;SDS011;61048;52.162;4.516;2023-04-06T09:54:54;6.35;;;2.40;;
72904;SDS011;61048;52.162;4.516;2023-04-06T09:57:23;6.72;;;2.50;;
72904;SDS011;61048;52.162;4.516;2023-04-06T09:59:58;6.97;;;2.83;;
72904;SDS011;61048;52.162;4.516;2023-04-06T10:02:32;7.07;;;2.05;;
72904;SDS011;61048;52.162;4.516;2023-04-06T10:05:02;9.10;;;2.58;;
72904;SDS011;61048;52.162;4.516;2023-04-06T10:07:32;10.38;;;2.78;;
72904;SDS011;61048;52.162;4.516;2023-04-06T10:09:59;10.18;;;2.58;;
72904;SDS011;61048;52.162;4.516;2023-04-06T10:12:29;15.07;;;3.00;;
72904;SDS011;61048;52.162;4.516;2023-04-06T10:14:58;5.82;;;2.03;;
72904;SDS011;61048;52.162;4.516;2023-04-06T10:17:25;8.43;;;2.70;;
72904;SDS011;61048;52.162;4.516;2023-04-06T10:19:53;7.75;;;2.45;;
72904;SDS011;61048;52.162;4.516;2023-04-06T10:22:22;9.48;;;2.60;;
72904;SDS011;61048;52.162;4.516;2023-04-06T10:24:51;6.28;;;2.25;;
72904;SDS011;61048;52.162;4.516;2023-04-06T10:27:27;7.07;;;2.10;;
72904;SDS011;61048;52.162;4.516;2023-04-06T10:29:54;6.00;;;1.95;;
72904;SDS011;61048;52.162;4.516;2023-04-06T10:32:32;6.35;;;2.42;;
72904;SDS011;61048;52.162;4.516;2023-04-06T10:35:07;6.78;;;1.90;;
72904;SDS011;61048;52.162;4.516;2023-04-06T10:37:47;6.25;;;1.88;;
72904;SDS011;61048;52.162;4.516;2023-04-06T10:40:17;4.65;;;1.98;;
72904;SDS011;61048;52.162;4.516;2023-04-06T10:42:45;4.00;;;1.98;;
72904;SDS011;61048;52.162;4.516;2023-04-06T10:45:18;5.43;;;2.00;;
72904;SDS011;61048;52.162;4.516;2023-04-06T10:47:47;5.88;;;1.80;;
72904;SDS011;61048;52.162;4.516;2023-04-06T10:50:14;4.80;;;2.28;;
72904;SDS011;61048;52.162;4.516;2023-04-06T10:52:43;6.65;;;2.20;;
72904;SDS011;61048;52.162;4.516;2023-04-06T10:55:10;5.05;;;1.95;;
72904;SDS011;61048;52.162;4.516;2023-04-06T10:57:38;4.32;;;1.92;;
72904;SDS011;61048;52.162;4.516;2023-04-06T11:00:06;4.30;;;1.90;;
72904;SDS011;61048;52.162;4.516;2023-04-06T11:02:34;5.28;;;1.85;;
72904;SDS011;61048;52.162;4.516;2023-04-06T11:05:04;4.65;;;1.98;;
72904;SDS011;61048;52.162;4.516;2023-04-06T11:07:31;5.05;;;1.90;;
72904;SDS011;61048;52.162;4.516;2023-04-06T11:09:58;4.68;;;1.67;;
72904;SDS011;61048;52.162;4.516;2023-04-06T11:12:26;6.35;;;1.77;;
72904;SDS011;61048;52.162;4.516;2023-04-06T11:14:55;4.90;;;2.20;;
72904;SDS011;61048;52.162;4.516;2023-04-06T11:17:27;4.05;;;2.90;;
72904;SDS011;61048;52.162;4.516;2023-04-06T11:19:54;5.68;;;1.92;;
72904;SDS011;61048;52.162;4.516;2023-04-06T11:22:23;3.55;;;1.63;;
72904;SDS011;61048;52.162;4.516;2023-04-06T11:24:50;5.35;;;2.00;;
72904;SDS011;61048;52.162;4.516;2023-04-06T11:27:17;4.35;;;2.25;;
72904;SDS011;61048;52.162;4.516;2023-04-06T11:29:45;4.68;;;1.48;;
72904;SDS011;61048;52.162;4.516;2023-04-06T11:32:19;4.32;;;1.60;;
72904;SDS011;61048;52.162;4.516;2023-04-06T11:34:47;3.67;;;1.65;;
72904;SDS011;61048;52.162;4.516;2023-04-06T11:37:14;4.85;;;1.75;;
72904;SDS011;61048;52.162;4.516;2023-04-06T11:39:46;2.67;;;1.40;;
72904;SDS011;61048;52.162;4.516;2023-04-06T11:42:20;3.40;;;1.33;;
72904;SDS011;61048;52.162;4.516;2023-04-06T11:44:49;4.43;;;1.52;;
72904;SDS011;61048;52.162;4.516;2023-04-06T11:47:17;6.05;;;1.40;;
72904;SDS011;61048;52.162;4.516;2023-04-06T11:49:45;3.42;;;1.30;;
72904;SDS011;61048;52.162;4.516;2023-04-06T11:52:16;3.97;;;1.75;;
72904;SDS011;61048;52.162;4.516;2023-04-06T11:54:45;3.33;;;1.30;;
72904;SDS011;61048;52.162;4.516;2023-04-06T11:57:12;2.92;;;1.40;;
72904;SDS011;61048;52.162;4.516;2023-04-06T11:59:41;3.15;;;1.20;;
72904;SDS011;61048;52.162;4.516;2023-04-06T12:02:09;4.15;;;1.58;;
72904;SDS011;61048;52.162;4.516;2023-04-06T12:04:36;3.25;;;1.42;;
72904;SDS011;61048;52.162;4.516;2023-04-06T12:07:03;3.72;;;1.60;;
72904;SDS011;61048;52.162;4.516;2023-04-06T12:09:31;3.05;;;1.40;;
72904;SDS011;61048;52.162;4.516;2023-04-06T12:12:00;3.17;;;1.40;;
72904;SDS011;61048;52.162;4.516;2023-04-06T12:14:28;3.15;;;1.38;;
72904;SDS011;61048;52.162;4.516;2023-04-06T12:16:55;2.55;;;1.55;;
72904;SDS011;61048;52.162;4.516;2023-04-06T12:19:22;3.10;;;1.40;;
72904;SDS011;61048;52.162;4.516;2023-04-06T12:21:50;2.45;;;1.20;;
72904;SDS011;61048;52.162;4.516;2023-04-06T12:24:18;3.13;;;1.13;;
72904;SDS011;61048;52.162;4.516;2023-04-06T12:26:45;2.15;;;0.88;;
72904;SDS011;61048;52.162;4.516;2023-04-06T12:29:13;2.97;;;1.38;;
72904;SDS011;61048;52.162;4.516;2023-04-06T12:31:40;3.35;;;1.20;;
72904;SDS011;61048;52.162;4.516;2023-04-06T12:34:09;2.45;;;1.30;;
72904;SDS011;61048;52.162;4.516;2023-04-06T12:36:37;2.80;;;1.40;;
72904;SDS011;61048;52.162;4.516;2023-04-06T12:39:04;2.45;;;1.00;;
72904;SDS011;61048;52.162;4.516;2023-04-06T12:41:31;2.88;;;1.63;;
72904;SDS011;61048;52.162;4.516;2023-04-06T12:43:59;2.67;;;1.33;;
72904;SDS011;61048;52.162;4.516;2023-04-06T12:46:28;4.47;;;1.15;;
72904;SDS011;61048;52.162;4.516;2023-04-06T12:48:55;2.80;;;1.30;;
72904;SDS011;61048;52.162;4.516;2023-04-06T12:51:24;3.05;;;1.10;;
72904;SDS011;61048;52.162;4.516;2023-04-06T12:53:51;3.03;;;1.05;;
72904;SDS011;61048;52.162;4.516;2023-04-06T12:56:18;4.38;;;1.27;;
72904;SDS011;61048;52.162;4.516;2023-04-06T12:58:47;3.15;;;1.35;;
72904;SDS011;61048;52.162;4.516;2023-04-06T13:01:16;3.70;;;1.55;;
72904;SDS011;61048;52.162;4.516;2023-04-06T13:03:44;3.13;;;1.33;;
72904;SDS011;61048;52.162;4.516;2023-04-06T13:06:11;3.70;;;1.52;;
72904;SDS011;61048;52.162;4.516;2023-04-06T13:08:39;4.30;;;1.70;;
72904;SDS011;61048;52.162;4.516;2023-04-06T13:11:07;3.53;;;1.13;;
72904;SDS011;61048;52.162;4.516;2023-04-06T13:13:34;2.80;;;1.40;;
72904;SDS011;61048;52.162;4.516;2023-04-06T13:16:02;3.33;;;1.27;;
72904;SDS011;61048;52.162;4.516;2023-04-06T13:18:30;2.85;;;1.15;;
72904;SDS011;61048;52.162;4.516;2023-04-06T13:20:59;4.05;;;1.38;;
72904;SDS011;61048;52.162;4.516;2023-04-06T13:23:26;2.85;;;1.23;;
72904;SDS011;61048;52.162;4.516;2023-04-06T13:25:59;3.88;;;1.13;;
72904;SDS011;61048;52.162;4.516;2023-04-06T13:28:27;2.85;;;1.20;;
72904;SDS011;61048;52.162;4.516;2023-04-06T13:30:54;3.33;;;1.00;;
72904;SDS011;61048;52.162;4.516;2023-04-06T13:33:21;2.80;;;1.20;;
72904;SDS011;61048;52.162;4.516;2023-04-06T13:35:48;5.13;;;1.58;;
72904;SDS011;61048;52.162;4.516;2023-04-06T13:38:17;2.38;;;0.98;;
72904;SDS011;61048;52.162;4.516;2023-04-06T13:40:43;7.43;;;1.83;;
72904;SDS011;61048;52.162;4.516;2023-04-06T13:43:10;3.35;;;1.23;;
72904;SDS011;61048;52.162;4.516;2023-04-06T13:45:37;2.47;;;0.85;;
72904;SDS011;61048;52.162;4.516;2023-04-06T13:48:05;2.20;;;1.15;;
72904;SDS011;61048;52.162;4.516;2023-04-06T13:50:32;2.13;;;1.17;;
72904;SDS011;61048;52.162;4.516;2023-04-06T13:52:59;3.25;;;1.20;;
72904;SDS011;61048;52.162;4.516;2023-04-06T13:55:27;3.92;;;1.10;;
72904;SDS011;61048;52.162;4.516;2023-04-06T13:57:56;2.90;;;1.02;;
72904;SDS011;61048;52.162;4.516;2023-04-06T14:00:23;2.95;;;1.13;;
72904;SDS011;61048;52.162;4.516;2023-04-06T14:02:50;2.88;;;1.10;;
72904;SDS011;61048;52.162;4.516;2023-04-06T14:05:19;2.38;;;1.10;;
72904;SDS011;61048;52.162;4.516;2023-04-06T14:07:46;2.28;;;1.13;;
72904;SDS011;61048;52.162;4.516;2023-04-06T14:10:13;3.28;;;1.10;;
72904;SDS011;61048;52.162;4.516;2023-04-06T14:12:42;2.00;;;0.95;;
72904;SDS011;61048;52.162;4.516;2023-04-06T14:15:10;2.17;;;1.10;;
72904;SDS011;61048;52.162;4.516;2023-04-06T14:17:37;1.98;;;0.70;;
72904;SDS011;61048;52.162;4.516;2023-04-06T14:20:05;2.88;;;1.05;;
72904;SDS011;61048;52.162;4.516;2023-04-06T14:22:33;2.47;;;1.00;;
72904;SDS011;61048;52.162;4.516;2023-04-06T14:25:00;2.45;;;0.98;;
72904;SDS011;61048;52.162;4.516;2023-04-06T14:27:27;1.30;;;0.60;;
72904;SDS011;61048;52.162;4.516;2023-04-06T14:29:55;1.90;;;0.60;;
72904;SDS011;61048;52.162;4.516;2023-04-06T14:32:22;1.70;;;0.70;;
72904;SDS011;61048;52.162;4.516;2023-04-06T14:34:49;2.92;;;0.90;;
72904;SDS011;61048;52.162;4.516;2023-04-06T14:37:16;2.58;;;0.93;;
72904;SDS011;61048;52.162;4.516;2023-04-06T14:39:43;2.42;;;0.90;;
72904;SDS011;61048;52.162;4.516;2023-04-06T14:42:11;1.77;;;0.80;;
72904;SDS011;61048;52.162;4.516;2023-04-06T14:44:37;2.75;;;0.90;;
72904;SDS011;61048;52.162;4.516;2023-04-06T14:47:09;1.38;;;0.60;;